sensor_id;sensor_type;location;lat;lon;timestamp;temperature;humidity
21037;DHT22;10677;50.942;4.028;2023-10-08T00:01:20;17.90;99.90
21037;DHT22;10677;50.942;4.028;2023-10-08T00:03:47;18.00;99.90
21037;DHT22;10677;50.942;4.028;2023-10-08T00:06:20;18.00;99.90
21037;DHT22;10677;50.942;4.028;2023-10-08T00:08:49;17.90;99.90
21037;DHT22;10677;50.942;4.028;2023-10-08T00:11:15;17.90;99.90
21037;DHT22;10677;50.942;4.028;2023-10-08T00:13:44;17.90;99.90
21037;DHT22;10677;50.942;4.028;2023-10-08T00:16:11;17.90;99.90
21037;DHT22;10677;50.942;4.028;2023-10-08T00:18:38;17.90;99.90
21037;DHT22;10677;50.942;4.028;2023-10-08T00:21:06;17.80;99.90
21037;DHT22;10677;50.942;4.028;2023-10-08T00:23:38;17.70;99.90
21037;DHT22;10677;50.942;4.028;2023-10-08T00:26:22;17.70;99.90
21037;DHT22;10677;50.942;4.028;2023-10-08T00:29:03;17.70;99.90
21037;DHT22;10677;50.942;4.028;2023-10-08T00:31:32;17.50;99.90
21037;DHT22;10677;50.942;4.028;2023-10-08T00:34:04;17.60;99.90
21037;DHT22;10677;50.942;4.028;2023-10-08T00:36:37;17.50;99.90
21037;DHT22;10677;50.942;4.028;2023-10-08T00:39:04;17.50;99.90
21037;DHT22;10677;50.942;4.028;2023-10-08T00:41:33;17.60;99.90
21037;DHT22;10677;50.942;4.028;2023-10-08T00:43:59;17.50;99.90
21037;DHT22;10677;50.942;4.028;2023-10-08T00:46:26;17.40;99.90
21037;DHT22;10677;50.942;4.028;2023-10-08T00:48:59;17.50;99.90
21037;DHT22;10677;50.942;4.028;2023-10-08T00:51:43;17.50;99.90
21037;DHT22;10677;50.942;4.028;2023-10-08T00:54:12;17.50;99.90
21037;DHT22;10677;50.942;4.028;2023-10-08T00:56:45;17.50;99.90
21037;DHT22;10677;50.942;4.028;2023-10-08T00:59:24;17.60;99.90
21037;DHT22;10677;50.942;4.028;2023-10-08T01:01:51;17.60;99.90
21037;DHT22;10677;50.942;4.028;2023-10-08T01:04:24;17.50;99.90
21037;DHT22;10677;50.942;4.028;2023-10-08T01:06:57;17.50;99.90
21037;DHT22;10677;50.942;4.028;2023-10-08T01:09:38;17.50;99.90
21037;DHT22;10677;50.942;4.028;2023-10-08T01:12:19;17.60;99.90
21037;DHT22;10677;50.942;4.028;2023-10-08T01:14:47;17.50;99.90
21037;DHT22;10677;50.942;4.028;2023-10-08T01:17:19;17.40;99.90
21037;DHT22;10677;50.942;4.028;2023-10-08T01:19:47;17.50;99.90
21037;DHT22;10677;50.942;4.028;2023-10-08T01:22:19;17.50;99.90
21037;DHT22;10677;50.942;4.028;2023-10-08T01:24:50;17.40;99.90
21037;DHT22;10677;50.942;4.028;2023-10-08T01:27:17;17.40;99.90
21037;DHT22;10677;50.942;4.028;2023-10-08T01:29:51;17.40;99.90
21037;DHT22;10677;50.942;4.028;2023-10-08T01:32:17;17.30;99.90
21037;DHT22;10677;50.942;4.028;2023-10-08T01:34:44;17.30;99.90
21037;DHT22;10677;50.942;4.028;2023-10-08T01:37:14;17.30;99.90
21037;DHT22;10677;50.942;4.028;2023-10-08T01:39:43;17.40;99.90
21037;DHT22;10677;50.942;4.028;2023-10-08T01:42:09;17.30;99.90
21037;DHT22;10677;50.942;4.028;2023-10-08T01:44:44;17.20;99.90
21037;DHT22;10677;50.942;4.028;2023-10-08T01:47:14;17.20;99.90
21037;DHT22;10677;50.942;4.028;2023-10-08T01:49:42;17.20;99.90
21037;DHT22;10677;50.942;4.028;2023-10-08T01:52:10;17.10;99.90
21037;DHT22;10677;50.942;4.028;2023-10-08T01:54:43;17.10;99.90
21037;DHT22;10677;50.942;4.028;2023-10-08T01:57:10;17.00;99.90
21037;DHT22;10677;50.942;4.028;2023-10-08T01:59:38;17.00;99.90
21037;DHT22;10677;50.942;4.028;2023-10-08T02:02:06;16.90;99.90
21037;DHT22;10677;50.942;4.028;2023-10-08T02:04:35;16.80;99.90
21037;DHT22;10677;50.942;4.028;2023-10-08T02:07:04;16.80;99.90
21037;DHT22;10677;50.942;4.028;2023-10-08T02:09:33;16.70;99.90
21037;DHT22;10677;50.942;4.028;2023-10-08T02:11:59;16.80;99.90
21037;DHT22;10677;50.942;4.028;2023-10-08T02:14:25;16.70;99.90
21037;DHT22;10677;50.942;4.028;2023-10-08T02:16:51;16.70;99.90
21037;DHT22;10677;50.942;4.028;2023-10-08T02:19:24;16.70;99.90
21037;DHT22;10677;50.942;4.028;2023-10-08T02:21:54;16.90;99.90
21037;DHT22;10677;50.942;4.028;2023-10-08T02:24:21;16.80;99.90
21037;DHT22;10677;50.942;4.028;2023-10-08T02:26:51;16.90;99.90
21037;DHT22;10677;50.942;4.028;2023-10-08T02:29:17;17.00;99.90
21037;DHT22;10677;50.942;4.028;2023-10-08T02:31:43;16.90;99.90
21037;DHT22;10677;50.942;4.028;2023-10-08T02:34:09;16.90;99.90
21037;DHT22;10677;50.942;4.028;2023-10-08T02:36:39;16.80;99.90
21037;DHT22;10677;50.942;4.028;2023-10-08T02:39:08;16.70;99.90
21037;DHT22;10677;50.942;4.028;2023-10-08T02:41:41;16.60;99.90
21037;DHT22;10677;50.942;4.028;2023-10-08T02:44:16;16.60;99.90
21037;DHT22;10677;50.942;4.028;2023-10-08T02:46:49;16.50;99.90
21037;DHT22;10677;50.942;4.028;2023-10-08T02:49:19;16.60;99.90
21037;DHT22;10677;50.942;4.028;2023-10-08T02:51:51;16.60;99.90
21037;DHT22;10677;50.942;4.028;2023-10-08T02:54:18;16.60;99.90
21037;DHT22;10677;50.942;4.028;2023-10-08T02:56:50;16.70;99.90
21037;DHT22;10677;50.942;4.028;2023-10-08T02:59:17;16.70;99.90
21037;DHT22;10677;50.942;4.028;2023-10-08T03:01:45;16.80;99.90
21037;DHT22;10677;50.942;4.028;2023-10-08T03:04:12;16.80;99.90
21037;DHT22;10677;50.942;4.028;2023-10-08T03:06:47;16.90;99.90
21037;DHT22;10677;50.942;4.028;2023-10-08T03:09:23;16.90;99.90
21037;DHT22;10677;50.942;4.028;2023-10-08T03:11:50;16.90;99.90
21037;DHT22;10677;50.942;4.028;2023-10-08T03:14:17;16.80;99.90
21037;DHT22;10677;50.942;4.028;2023-10-08T03:16:54;16.70;99.90
21037;DHT22;10677;50.942;4.028;2023-10-08T03:19:23;16.70;99.90
21037;DHT22;10677;50.942;4.028;2023-10-08T03:21:50;16.70;99.90
21037;DHT22;10677;50.942;4.028;2023-10-08T03:24:19;16.60;99.90
21037;DHT22;10677;50.942;4.028;2023-10-08T03:27:04;16.60;99.90
21037;DHT22;10677;50.942;4.028;2023-10-08T03:29:38;16.50;99.90
21037;DHT22;10677;50.942;4.028;2023-10-08T03:32:12;16.50;99.90
21037;DHT22;10677;50.942;4.028;2023-10-08T03:34:53;16.40;99.90
21037;DHT22;10677;50.942;4.028;2023-10-08T03:37:22;16.30;99.90
21037;DHT22;10677;50.942;4.028;2023-10-08T03:39:55;16.20;99.90
21037;DHT22;10677;50.942;4.028;2023-10-08T03:42:49;16.20;99.90
21037;DHT22;10677;50.942;4.028;2023-10-08T03:45:15;16.10;99.90
21037;DHT22;10677;50.942;4.028;2023-10-08T03:47:48;16.00;99.90
21037;DHT22;10677;50.942;4.028;2023-10-08T03:50:29;16.00;99.90
21037;DHT22;10677;50.942;4.028;2023-10-08T03:53:09;16.00;99.90
21037;DHT22;10677;50.942;4.028;2023-10-08T03:55:40;15.90;99.90
21037;DHT22;10677;50.942;4.028;2023-10-08T03:58:07;15.90;99.90
21037;DHT22;10677;50.942;4.028;2023-10-08T04:00:36;15.90;99.90
21037;DHT22;10677;50.942;4.028;2023-10-08T04:03:07;15.80;99.90
21037;DHT22;10677;50.942;4.028;2023-10-08T04:05:37;15.70;99.90
21037;DHT22;10677;50.942;4.028;2023-10-08T04:08:09;15.70;99.90
21037;DHT22;10677;50.942;4.028;2023-10-08T04:11:05;15.70;99.90
21037;DHT22;10677;50.942;4.028;2023-10-08T04:13:34;15.60;99.90
21037;DHT22;10677;50.942;4.028;2023-10-08T04:16:04;15.60;99.90
21037;DHT22;10677;50.942;4.028;2023-10-08T04:18:30;15.60;99.90
21037;DHT22;10677;50.942;4.028;2023-10-08T04:20:55;15.70;99.90
21037;DHT22;10677;50.942;4.028;2023-10-08T04:23:30;15.60;99.90
21037;DHT22;10677;50.942;4.028;2023-10-08T04:25:56;15.70;99.90
21037;DHT22;10677;50.942;4.028;2023-10-08T04:28:22;15.60;99.90
21037;DHT22;10677;50.942;4.028;2023-10-08T04:30:52;15.60;99.90
21037;DHT22;10677;50.942;4.028;2023-10-08T04:33:17;15.50;99.90
21037;DHT22;10677;50.942;4.028;2023-10-08T04:35:45;15.60;99.90
21037;DHT22;10677;50.942;4.028;2023-10-08T04:38:16;15.50;99.90
21037;DHT22;10677;50.942;4.028;2023-10-08T04:40:47;15.50;99.90
21037;DHT22;10677;50.942;4.028;2023-10-08T04:43:20;15.50;99.90
21037;DHT22;10677;50.942;4.028;2023-10-08T04:45:57;15.50;99.90
21037;DHT22;10677;50.942;4.028;2023-10-08T04:48:26;15.40;99.90
21037;DHT22;10677;50.942;4.028;2023-10-08T04:50:53;15.40;99.90
21037;DHT22;10677;50.942;4.028;2023-10-08T04:53:30;15.30;99.90
21037;DHT22;10677;50.942;4.028;2023-10-08T04:56:04;15.30;99.90
21037;DHT22;10677;50.942;4.028;2023-10-08T04:58:39;15.40;99.90
21037;DHT22;10677;50.942;4.028;2023-10-08T05:01:09;15.30;99.90
21037;DHT22;10677;50.942;4.028;2023-10-08T05:06:24;15.30;99.90
21037;DHT22;10677;50.942;4.028;2023-10-08T05:09:03;15.20;99.90
21037;DHT22;10677;50.942;4.028;2023-10-08T05:11:41;15.20;99.90
21037;DHT22;10677;50.942;4.028;2023-10-08T05:14:22;15.20;99.90
21037;DHT22;10677;50.942;4.028;2023-10-08T05:17:07;15.20;99.90
21037;DHT22;10677;50.942;4.028;2023-10-08T05:19:40;15.10;99.90
21037;DHT22;10677;50.942;4.028;2023-10-08T05:22:09;15.10;99.90
21037;DHT22;10677;50.942;4.028;2023-10-08T05:24:55;15.00;99.90
21037;DHT22;10677;50.942;4.028;2023-10-08T05:27:42;15.00;99.90
21037;DHT22;10677;50.942;4.028;2023-10-08T05:30:18;15.00;99.90
21037;DHT22;10677;50.942;4.028;2023-10-08T05:32:52;15.00;99.90
21037;DHT22;10677;50.942;4.028;2023-10-08T05:35:37;15.00;99.90
21037;DHT22;10677;50.942;4.028;2023-10-08T05:38:17;15.00;99.90
21037;DHT22;10677;50.942;4.028;2023-10-08T05:40:50;14.90;99.90
21037;DHT22;10677;50.942;4.028;2023-10-08T05:43:22;14.90;99.90
21037;DHT22;10677;50.942;4.028;2023-10-08T05:46:13;14.90;99.90
21037;DHT22;10677;50.942;4.028;2023-10-08T05:49:00;14.80;99.90
21037;DHT22;10677;50.942;4.028;2023-10-08T05:51:42;14.90;99.90
21037;DHT22;10677;50.942;4.028;2023-10-08T05:54:31;14.90;99.90
21037;DHT22;10677;50.942;4.028;2023-10-08T05:59:44;14.90;99.90
21037;DHT22;10677;50.942;4.028;2023-10-08T06:02:27;15.00;99.90
21037;DHT22;10677;50.942;4.028;2023-10-08T06:05:02;15.00;99.90
21037;DHT22;10677;50.942;4.028;2023-10-08T06:10:30;15.10;99.90
21037;DHT22;10677;50.942;4.028;2023-10-08T06:13:07;15.20;99.90
21037;DHT22;10677;50.942;4.028;2023-10-08T06:15:52;15.20;99.90
21037;DHT22;10677;50.942;4.028;2023-10-08T06:18:28;15.30;99.90
21037;DHT22;10677;50.942;4.028;2023-10-08T06:21:00;15.40;99.90
21037;DHT22;10677;50.942;4.028;2023-10-08T06:23:28;15.40;99.90
21037;DHT22;10677;50.942;4.028;2023-10-08T06:26:01;15.30;99.90
21037;DHT22;10677;50.942;4.028;2023-10-08T06:28:37;15.50;99.90
21037;DHT22;10677;50.942;4.028;2023-10-08T06:31:05;15.50;99.90
21037;DHT22;10677;50.942;4.028;2023-10-08T06:33:39;15.50;99.90
21037;DHT22;10677;50.942;4.028;2023-10-08T06:36:06;15.50;99.90
21037;DHT22;10677;50.942;4.028;2023-10-08T06:38:40;15.50;99.90
21037;DHT22;10677;50.942;4.028;2023-10-08T06:41:08;15.70;99.90
21037;DHT22;10677;50.942;4.028;2023-10-08T06:43:49;15.60;99.90
21037;DHT22;10677;50.942;4.028;2023-10-08T06:46:16;15.70;99.90
21037;DHT22;10677;50.942;4.028;2023-10-08T06:48:45;15.70;99.90
21037;DHT22;10677;50.942;4.028;2023-10-08T06:51:13;15.70;99.90
21037;DHT22;10677;50.942;4.028;2023-10-08T06:53:42;15.60;99.90
21037;DHT22;10677;50.942;4.028;2023-10-08T06:56:10;15.60;99.90
21037;DHT22;10677;50.942;4.028;2023-10-08T06:58:38;15.70;99.90
21037;DHT22;10677;50.942;4.028;2023-10-08T07:01:04;15.60;99.90
21037;DHT22;10677;50.942;4.028;2023-10-08T07:03:31;15.60;99.90
21037;DHT22;10677;50.942;4.028;2023-10-08T07:05:58;15.70;99.90
21037;DHT22;10677;50.942;4.028;2023-10-08T07:08:29;15.70;99.90
21037;DHT22;10677;50.942;4.028;2023-10-08T07:11:01;15.60;99.90
21037;DHT22;10677;50.942;4.028;2023-10-08T07:13:27;15.70;99.90
21037;DHT22;10677;50.942;4.028;2023-10-08T07:15:56;15.70;99.90
21037;DHT22;10677;50.942;4.028;2023-10-08T07:18:22;15.80;99.90
21037;DHT22;10677;50.942;4.028;2023-10-08T07:20:52;15.90;99.90
21037;DHT22;10677;50.942;4.028;2023-10-08T07:23:26;16.00;99.90
21037;DHT22;10677;50.942;4.028;2023-10-08T07:25:55;16.10;99.90
21037;DHT22;10677;50.942;4.028;2023-10-08T07:28:40;16.10;99.90
21037;DHT22;10677;50.942;4.028;2023-10-08T07:31:15;16.20;99.90
21037;DHT22;10677;50.942;4.028;2023-10-08T07:33:46;16.30;99.90
21037;DHT22;10677;50.942;4.028;2023-10-08T07:36:11;16.40;99.90
21037;DHT22;10677;50.942;4.028;2023-10-08T07:38:38;16.50;99.90
21037;DHT22;10677;50.942;4.028;2023-10-08T07:41:05;16.50;99.90
21037;DHT22;10677;50.942;4.028;2023-10-08T07:43:31;16.50;99.90
21037;DHT22;10677;50.942;4.028;2023-10-08T07:45:58;16.50;99.90
21037;DHT22;10677;50.942;4.028;2023-10-08T07:48:24;16.60;99.90
21037;DHT22;10677;50.942;4.028;2023-10-08T07:50:56;16.60;99.90
21037;DHT22;10677;50.942;4.028;2023-10-08T07:53:23;16.70;99.90
21037;DHT22;10677;50.942;4.028;2023-10-08T07:55:50;16.70;99.90
21037;DHT22;10677;50.942;4.028;2023-10-08T07:58:17;16.80;99.90
21037;DHT22;10677;50.942;4.028;2023-10-08T08:00:44;16.80;99.90
21037;DHT22;10677;50.942;4.028;2023-10-08T08:03:19;16.90;99.90
21037;DHT22;10677;50.942;4.028;2023-10-08T08:05:46;16.90;99.90
21037;DHT22;10677;50.942;4.028;2023-10-08T08:08:13;16.80;99.90
21037;DHT22;10677;50.942;4.028;2023-10-08T08:10:45;16.80;99.90
21037;DHT22;10677;50.942;4.028;2023-10-08T08:13:11;16.80;99.90
21037;DHT22;10677;50.942;4.028;2023-10-08T08:15:37;16.90;99.90
21037;DHT22;10677;50.942;4.028;2023-10-08T08:18:07;16.90;99.90
21037;DHT22;10677;50.942;4.028;2023-10-08T08:20:35;17.00;99.90
21037;DHT22;10677;50.942;4.028;2023-10-08T08:23:07;17.00;99.90
21037;DHT22;10677;50.942;4.028;2023-10-08T08:25:41;17.10;99.90
21037;DHT22;10677;50.942;4.028;2023-10-08T08:28:25;17.30;99.90
21037;DHT22;10677;50.942;4.028;2023-10-08T08:30:54;17.40;99.90
21037;DHT22;10677;50.942;4.028;2023-10-08T08:33:21;17.40;99.90
21037;DHT22;10677;50.942;4.028;2023-10-08T08:36:02;17.50;99.90
21037;DHT22;10677;50.942;4.028;2023-10-08T08:38:30;17.60;99.90
21037;DHT22;10677;50.942;4.028;2023-10-08T08:41:04;17.80;99.90
21037;DHT22;10677;50.942;4.028;2023-10-08T08:43:36;17.80;99.90
21037;DHT22;10677;50.942;4.028;2023-10-08T08:46:05;17.90;99.90
21037;DHT22;10677;50.942;4.028;2023-10-08T08:48:34;18.10;99.90
21037;DHT22;10677;50.942;4.028;2023-10-08T08:51:01;18.20;99.90
21037;DHT22;10677;50.942;4.028;2023-10-08T08:53:26;18.30;99.90
21037;DHT22;10677;50.942;4.028;2023-10-08T08:55:54;18.30;99.90
21037;DHT22;10677;50.942;4.028;2023-10-08T08:58:21;18.50;99.90
21037;DHT22;10677;50.942;4.028;2023-10-08T09:00:50;18.50;99.90
21037;DHT22;10677;50.942;4.028;2023-10-08T09:03:17;18.50;99.90
21037;DHT22;10677;50.942;4.028;2023-10-08T09:05:45;18.60;99.90
21037;DHT22;10677;50.942;4.028;2023-10-08T09:08:16;18.70;99.90
21037;DHT22;10677;50.942;4.028;2023-10-08T09:10:44;18.90;99.90
21037;DHT22;10677;50.942;4.028;2023-10-08T09:13:22;19.00;99.90
21037;DHT22;10677;50.942;4.028;2023-10-08T09:15:49;19.00;99.90
21037;DHT22;10677;50.942;4.028;2023-10-08T09:18:15;19.00;99.90
21037;DHT22;10677;50.942;4.028;2023-10-08T09:20:41;19.00;99.90
21037;DHT22;10677;50.942;4.028;2023-10-08T09:23:14;19.00;99.90
21037;DHT22;10677;50.942;4.028;2023-10-08T09:25:44;19.00;99.90
21037;DHT22;10677;50.942;4.028;2023-10-08T09:28:10;19.00;99.90
21037;DHT22;10677;50.942;4.028;2023-10-08T09:30:39;19.00;99.90
21037;DHT22;10677;50.942;4.028;2023-10-08T09:33:09;19.00;99.90
21037;DHT22;10677;50.942;4.028;2023-10-08T09:35:36;19.10;99.90
21037;DHT22;10677;50.942;4.028;2023-10-08T09:38:08;19.10;99.90
21037;DHT22;10677;50.942;4.028;2023-10-08T09:40:38;19.20;99.90
21037;DHT22;10677;50.942;4.028;2023-10-08T09:43:04;19.40;99.90
21037;DHT22;10677;50.942;4.028;2023-10-08T09:45:30;19.50;99.90
21037;DHT22;10677;50.942;4.028;2023-10-08T09:47:56;19.60;99.90
21037;DHT22;10677;50.942;4.028;2023-10-08T09:50:37;19.70;99.90
21037;DHT22;10677;50.942;4.028;2023-10-08T09:53:10;19.80;99.90
21037;DHT22;10677;50.942;4.028;2023-10-08T09:55:54;19.80;99.90
21037;DHT22;10677;50.942;4.028;2023-10-08T09:58:25;19.90;99.90
21037;DHT22;10677;50.942;4.028;2023-10-08T10:00:54;19.90;99.90
21037;DHT22;10677;50.942;4.028;2023-10-08T10:03:21;19.90;99.90
21037;DHT22;10677;50.942;4.028;2023-10-08T10:05:49;19.90;99.90
21037;DHT22;10677;50.942;4.028;2023-10-08T10:08:16;19.90;99.90
21037;DHT22;10677;50.942;4.028;2023-10-08T10:10:42;20.00;99.90
21037;DHT22;10677;50.942;4.028;2023-10-08T10:13:13;19.90;99.90
21037;DHT22;10677;50.942;4.028;2023-10-08T10:15:42;20.00;99.90
21037;DHT22;10677;50.942;4.028;2023-10-08T10:20:39;20.20;99.90
21037;DHT22;10677;50.942;4.028;2023-10-08T10:26:22;20.40;99.90
21037;DHT22;10677;50.942;4.028;2023-10-08T10:31:33;20.50;99.90
21037;DHT22;10677;50.942;4.028;2023-10-08T10:34:07;20.60;99.90
21037;DHT22;10677;50.942;4.028;2023-10-08T10:36:37;20.70;99.90
21037;DHT22;10677;50.942;4.028;2023-10-08T10:39:06;20.70;99.90
21037;DHT22;10677;50.942;4.028;2023-10-08T10:41:50;20.80;99.90
21037;DHT22;10677;50.942;4.028;2023-10-08T10:44:17;20.90;99.90
21037;DHT22;10677;50.942;4.028;2023-10-08T10:46:46;20.90;99.90
21037;DHT22;10677;50.942;4.028;2023-10-08T10:49:38;20.90;99.90
21037;DHT22;10677;50.942;4.028;2023-10-08T10:52:14;20.90;99.90
21037;DHT22;10677;50.942;4.028;2023-10-08T10:54:45;20.80;99.90
21037;DHT22;10677;50.942;4.028;2023-10-08T10:57:25;20.80;99.90
21037;DHT22;10677;50.942;4.028;2023-10-08T11:00:09;20.90;99.90
21037;DHT22;10677;50.942;4.028;2023-10-08T11:03:04;21.00;99.90
21037;DHT22;10677;50.942;4.028;2023-10-08T11:05:59;21.10;99.90
21037;DHT22;10677;50.942;4.028;2023-10-08T11:08:26;21.20;99.90
21037;DHT22;10677;50.942;4.028;2023-10-08T11:10:57;21.30;99.90
21037;DHT22;10677;50.942;4.028;2023-10-08T11:13:24;21.40;99.90
21037;DHT22;10677;50.942;4.028;2023-10-08T11:16:04;21.50;99.90
21037;DHT22;10677;50.942;4.028;2023-10-08T11:18:30;21.50;99.90
21037;DHT22;10677;50.942;4.028;2023-10-08T11:21:08;21.50;99.90
21037;DHT22;10677;50.942;4.028;2023-10-08T11:23:50;21.50;99.90
21037;DHT22;10677;50.942;4.028;2023-10-08T11:26:24;21.60;99.90
21037;DHT22;10677;50.942;4.028;2023-10-08T11:29:01;21.60;99.90
21037;DHT22;10677;50.942;4.028;2023-10-08T11:31:29;21.70;99.90
21037;DHT22;10677;50.942;4.028;2023-10-08T11:34:02;21.90;99.90
21037;DHT22;10677;50.942;4.028;2023-10-08T11:36:36;22.00;99.90
21037;DHT22;10677;50.942;4.028;2023-10-08T11:39:14;22.20;99.90
21037;DHT22;10677;50.942;4.028;2023-10-08T11:42:02;22.20;99.90
21037;DHT22;10677;50.942;4.028;2023-10-08T11:44:30;22.30;99.90
21037;DHT22;10677;50.942;4.028;2023-10-08T11:46:56;22.30;99.90
21037;DHT22;10677;50.942;4.028;2023-10-08T11:49:30;22.40;99.90
21037;DHT22;10677;50.942;4.028;2023-10-08T11:52:01;22.40;99.90
21037;DHT22;10677;50.942;4.028;2023-10-08T11:54:27;22.50;99.90
21037;DHT22;10677;50.942;4.028;2023-10-08T11:56:53;22.50;99.90
21037;DHT22;10677;50.942;4.028;2023-10-08T11:59:20;22.50;99.90
21037;DHT22;10677;50.942;4.028;2023-10-08T12:01:46;22.50;99.90
21037;DHT22;10677;50.942;4.028;2023-10-08T12:04:11;22.60;99.90
21037;DHT22;10677;50.942;4.028;2023-10-08T12:06:42;22.70;99.90
21037;DHT22;10677;50.942;4.028;2023-10-08T12:09:17;22.90;99.90
21037;DHT22;10677;50.942;4.028;2023-10-08T12:11:50;23.00;99.90
21037;DHT22;10677;50.942;4.028;2023-10-08T12:14:16;23.20;99.90
21037;DHT22;10677;50.942;4.028;2023-10-08T12:16:43;23.30;99.90
21037;DHT22;10677;50.942;4.028;2023-10-08T12:19:11;23.50;99.90
21037;DHT22;10677;50.942;4.028;2023-10-08T12:21:45;23.70;99.90
21037;DHT22;10677;50.942;4.028;2023-10-08T12:24:14;23.80;99.90
21037;DHT22;10677;50.942;4.028;2023-10-08T12:26:40;23.80;99.90
21037;DHT22;10677;50.942;4.028;2023-10-08T12:29:15;23.90;99.90
21037;DHT22;10677;50.942;4.028;2023-10-08T12:31:43;24.00;99.90
21037;DHT22;10677;50.942;4.028;2023-10-08T12:34:13;24.10;99.90
21037;DHT22;10677;50.942;4.028;2023-10-08T12:36:39;24.20;99.90
21037;DHT22;10677;50.942;4.028;2023-10-08T12:39:06;24.20;99.90
21037;DHT22;10677;50.942;4.028;2023-10-08T12:41:41;24.30;99.90
21037;DHT22;10677;50.942;4.028;2023-10-08T12:44:09;24.30;99.90
21037;DHT22;10677;50.942;4.028;2023-10-08T12:46:35;24.50;99.90
21037;DHT22;10677;50.942;4.028;2023-10-08T12:49:02;24.50;99.90
21037;DHT22;10677;50.942;4.028;2023-10-08T12:51:28;24.60;99.90
21037;DHT22;10677;50.942;4.028;2023-10-08T12:53:59;24.70;99.90
21037;DHT22;10677;50.942;4.028;2023-10-08T12:56:29;24.90;99.90
21037;DHT22;10677;50.942;4.028;2023-10-08T12:59:04;25.00;99.90
21037;DHT22;10677;50.942;4.028;2023-10-08T13:01:35;25.00;99.90
21037;DHT22;10677;50.942;4.028;2023-10-08T13:04:06;25.00;99.90
21037;DHT22;10677;50.942;4.028;2023-10-08T13:06:34;25.10;99.90
21037;DHT22;10677;50.942;4.028;2023-10-08T13:09:03;25.30;99.90
21037;DHT22;10677;50.942;4.028;2023-10-08T13:11:38;25.50;99.90
21037;DHT22;10677;50.942;4.028;2023-10-08T13:14:04;25.60;99.90
21037;DHT22;10677;50.942;4.028;2023-10-08T13:16:30;25.70;99.90
21037;DHT22;10677;50.942;4.028;2023-10-08T13:18:58;25.60;99.90
21037;DHT22;10677;50.942;4.028;2023-10-08T13:21:25;25.20;99.90
21037;DHT22;10677;50.942;4.028;2023-10-08T13:23:54;25.20;99.90
21037;DHT22;10677;50.942;4.028;2023-10-08T13:26:22;25.20;99.90
21037;DHT22;10677;50.942;4.028;2023-10-08T13:28:50;25.20;99.90
21037;DHT22;10677;50.942;4.028;2023-10-08T13:31:16;25.20;99.90
21037;DHT22;10677;50.942;4.028;2023-10-08T13:33:43;25.30;99.90
21037;DHT22;10677;50.942;4.028;2023-10-08T13:36:10;25.30;99.90
21037;DHT22;10677;50.942;4.028;2023-10-08T13:38:39;25.20;99.90
21037;DHT22;10677;50.942;4.028;2023-10-08T13:41:09;25.20;99.90
21037;DHT22;10677;50.942;4.028;2023-10-08T13:43:50;25.30;99.90
21037;DHT22;10677;50.942;4.028;2023-10-08T13:46:24;25.30;99.90
21037;DHT22;10677;50.942;4.028;2023-10-08T13:48:50;25.50;99.90
21037;DHT22;10677;50.942;4.028;2023-10-08T13:51:17;25.80;99.90
21037;DHT22;10677;50.942;4.028;2023-10-08T13:53:57;26.10;99.90
21037;DHT22;10677;50.942;4.028;2023-10-08T13:56:28;26.40;99.90
21037;DHT22;10677;50.942;4.028;2023-10-08T13:58:57;26.80;99.90
21037;DHT22;10677;50.942;4.028;2023-10-08T14:01:52;27.40;99.90
21037;DHT22;10677;50.942;4.028;2023-10-08T14:04:18;28.00;99.90
21037;DHT22;10677;50.942;4.028;2023-10-08T14:06:51;28.40;99.90
21037;DHT22;10677;50.942;4.028;2023-10-08T14:09:18;28.90;99.90
21037;DHT22;10677;50.942;4.028;2023-10-08T14:11:49;29.30;99.90
21037;DHT22;10677;50.942;4.028;2023-10-08T14:14:18;29.90;99.90
21037;DHT22;10677;50.942;4.028;2023-10-08T14:16:45;31.10;99.90
21037;DHT22;10677;50.942;4.028;2023-10-08T14:19:17;30.90;99.90
21037;DHT22;10677;50.942;4.028;2023-10-08T14:21:43;31.30;99.90
21037;DHT22;10677;50.942;4.028;2023-10-08T14:24:19;31.90;99.90
21037;DHT22;10677;50.942;4.028;2023-10-08T14:26:46;31.80;99.90
21037;DHT22;10677;50.942;4.028;2023-10-08T14:29:18;32.10;99.90
21037;DHT22;10677;50.942;4.028;2023-10-08T14:31:44;32.40;99.90
21037;DHT22;10677;50.942;4.028;2023-10-08T14:34:21;32.60;99.90
21037;DHT22;10677;50.942;4.028;2023-10-08T14:37:07;33.30;99.90
21037;DHT22;10677;50.942;4.028;2023-10-08T14:39:51;33.20;99.90
21037;DHT22;10677;50.942;4.028;2023-10-08T14:42:35;33.10;99.90
21037;DHT22;10677;50.942;4.028;2023-10-08T14:45:19;33.20;99.90
21037;DHT22;10677;50.942;4.028;2023-10-08T14:47:45;33.00;99.90
21037;DHT22;10677;50.942;4.028;2023-10-08T14:50:11;33.00;99.90
21037;DHT22;10677;50.942;4.028;2023-10-08T14:52:45;33.00;99.90
21037;DHT22;10677;50.942;4.028;2023-10-08T14:55:12;33.40;99.90
21037;DHT22;10677;50.942;4.028;2023-10-08T14:57:47;33.50;99.90
21037;DHT22;10677;50.942;4.028;2023-10-08T15:00:12;33.40;99.90
21037;DHT22;10677;50.942;4.028;2023-10-08T15:02:38;33.90;99.90
21037;DHT22;10677;50.942;4.028;2023-10-08T15:05:05;33.70;99.90
21037;DHT22;10677;50.942;4.028;2023-10-08T15:07:32;33.20;99.90
21037;DHT22;10677;50.942;4.028;2023-10-08T15:09:58;32.70;99.90
21037;DHT22;10677;50.942;4.028;2023-10-08T15:12:29;32.10;99.90
21037;DHT22;10677;50.942;4.028;2023-10-08T15:15:00;31.90;99.90
21037;DHT22;10677;50.942;4.028;2023-10-08T15:17:26;31.70;99.90
21037;DHT22;10677;50.942;4.028;2023-10-08T15:19:51;31.40;99.90
21037;DHT22;10677;50.942;4.028;2023-10-08T15:22:17;31.50;99.90
21037;DHT22;10677;50.942;4.028;2023-10-08T15:24:43;31.90;99.90
21037;DHT22;10677;50.942;4.028;2023-10-08T15:27:10;32.00;99.90
21037;DHT22;10677;50.942;4.028;2023-10-08T15:29:36;31.90;99.90
21037;DHT22;10677;50.942;4.028;2023-10-08T15:32:02;32.10;99.90
21037;DHT22;10677;50.942;4.028;2023-10-08T15:34:28;32.60;99.90
21037;DHT22;10677;50.942;4.028;2023-10-08T15:36:54;32.80;99.90
21037;DHT22;10677;50.942;4.028;2023-10-08T15:39:20;33.20;99.90
21037;DHT22;10677;50.942;4.028;2023-10-08T15:41:52;32.90;99.90
21037;DHT22;10677;50.942;4.028;2023-10-08T15:44:18;32.70;99.90
21037;DHT22;10677;50.942;4.028;2023-10-08T15:46:46;33.00;99.90
21037;DHT22;10677;50.942;4.028;2023-10-08T15:49:12;32.90;99.90
21037;DHT22;10677;50.942;4.028;2023-10-08T15:51:38;32.10;99.90
21037;DHT22;10677;50.942;4.028;2023-10-08T15:54:05;31.90;99.90
21037;DHT22;10677;50.942;4.028;2023-10-08T15:56:32;31.40;99.90
21037;DHT22;10677;50.942;4.028;2023-10-08T15:58:58;31.20;99.90
21037;DHT22;10677;50.942;4.028;2023-10-08T16:01:23;30.70;99.90
21037;DHT22;10677;50.942;4.028;2023-10-08T16:03:51;30.60;99.90
21037;DHT22;10677;50.942;4.028;2023-10-08T16:06:18;30.40;99.90
21037;DHT22;10677;50.942;4.028;2023-10-08T16:08:44;30.10;99.90
21037;DHT22;10677;50.942;4.028;2023-10-08T16:11:10;29.50;99.90